Latest Coastal Weather Observations for Mornington Island Airport

IDQ60701

Issued at 2:51 am EST Wednesday 1 April 2015 (issued every 10 minutes, with the page automatically refreshed every 10 minutes)

About coastal observations | Map of coastal stations | Coastal observations for QLD | Marine services | Other Formats
Station Details ID: 029182 Name: MORNINGTON ISLAND AIRPORT Lat: -16.66 Lon: 139.17 Height: 9.0 m
Data from the previous 72 hours. | See also: Recent months at Mornington Island Airport
Date/Time
EST
Temp

°C
Wind Pressure Rain
since 9am
mm
Weather Cloud Vis
km
Sea
Height
m
Swell
Dir
 
Speed
knots
Gust
knots
hPa Trend Height
m
Period
s
Dir
01/02:30am 28.5 W 6 7 1010.3 - 0.0 - - - - - - -
01/02:00am 28.4 WNW 5 6 1010.6 - 0.0 - - - - - - -
01/01:30am 28.2 NW 5 6 1010.9 - 0.0 - - - - - - -
01/01:00am 28.2 NW 6 7 1011.3 - 0.0 - - - - - - -
01/12:30am 28.7 NW 5 7 1011.4 - 0.0 - - - - - - -
01/12:00am 28.6 WNW 6 7 1011.6 - 0.0 - - - - - - -
 
Date/Time
EST
Temp

°C
Wind Pressure Rain
since 9am
mm
Weather Cloud Vis
km
Sea
Height
m
Swell
Dir
 
Speed
knots
Gust
knots
hPa Trend Height
m
Period
s
Dir
31/11:30pm 28.6 WNW 5 6 1011.8 - 0.0 - - - - - - -
31/11:00pm 28.1 NNW 5 7 1011.8 - 0.0 - - - - - - -
31/10:30pm 28.3 NW 4 6 1012.0 - 0.0 - - - - - - -
31/10:00pm 28.3 NNW 5 7 1012.1 - 0.0 - - - - - - -
31/09:30pm 27.8 N 5 7 1012.1 - 0.0 - - - - - - -
31/09:00pm 27.9 NNW 7 8 1012.0 - 0.0 - - - - - - -
31/08:30pm 27.9 NNW 6 7 1011.8 - 0.0 - - - - - - -
31/08:00pm 28.1 NNW 5 6 1011.7 - 0.0 - - - - - - -
31/07:30pm 28.5 N 5 6 1011.6 - 0.0 - - - - - - -
31/07:00pm 29.0 N 4 6 1011.5 - 0.0 - - - - - - -
31/06:30pm 29.8 N 5 7 1011.3 - 0.0 - - - - - - -
31/06:00pm 30.6 NNW 7 8 1011.2 - 0.0 - - - - - - -
31/05:30pm 31.5 NNW 7 8 1011.0 - 0.0 - - - - - - -
31/05:00pm 31.6 NW 8 10 1010.8 - 0.0 - - - - - - -
31/04:30pm 32.3 NW 8 11 1010.7 - 0.0 - - - - - - -
31/04:00pm 32.1 NW 8 10 1010.6 - 0.0 - - - - - - -
31/03:30pm 32.0 NW 8 11 1010.9 - 0.0 - - - - - - -
31/03:00pm 31.9 NW 8 11 1011.2 - 0.0 - - - - - - -
31/02:30pm 32.3 WNW 7 10 1011.7 - 0.0 - - - - - - -
31/02:00pm 32.6 NW 9 10 1012.1 - 0.0 - - - - - - -
31/01:30pm 31.6 WNW 10 12 1012.5 - 0.0 - - - - - - -
31/01:00pm 32.9 WNW 9 12 1012.8 - 0.0 - - - - - - -
31/12:30pm 31.9 NNW 5 8 1013.3 - 0.0 - - - - - - -
31/12:00pm 31.4 NNE 6 13 1013.7 - 0.0 - - - - - - -
31/11:30am 31.1 NW 8 14 1014.1 - 0.0 - - - - - - -
31/11:00am 31.9 ENE 5 9 1014.5 - 0.0 - - - - - - -
31/10:30am 31.8 E 5 7 1014.8 - 0.0 - - - - - - -
31/10:00am 32.0 ENE 6 10 1014.8 - 0.0 - - - - - - -
31/09:30am 31.9 NE 5 9 1014.8 - 0.0 - - - - - - -
31/09:00am 31.2 ENE 6 8 1014.7 - 0.0 - - - - - - -
31/08:30am 30.3 E 5 7 1014.6 - 0.0 - - - - - - -
31/08:00am 28.3 ENE 4 6 1014.3 - 0.0 - - - - - - -
31/07:30am 26.3 ENE 3 5 1013.9 - 0.0 - - - - - - -
31/07:00am 25.0 ENE 4 5 1013.5 - 0.0 - - - - - - -
31/06:30am 25.0 ENE 3 4 1013.1 - 0.0 - - - - - - -
31/06:00am 24.9 NE 3 4 1012.7 - 0.0 - - - - - - -
31/05:30am 25.2 CALM 0 0 1012.2 - 0.0 - - - - - - -
31/05:00am 26.3 WNW 2 4 1011.8 - 0.0 - - - - - - -
31/04:30am 27.2 WNW 4 5 1011.5 - 0.0 - - - - - - -
31/04:00am 26.4 WNW 5 6 1011.4 - 0.0 - - - - - - -
31/03:30am 25.8 WNW 3 4 1011.4 - 0.0 - - - - - - -
31/03:00am 25.7 CALM 0 0 1011.5 - 0.0 - - - - - - -
31/02:30am 25.9 CALM 0 3 1011.8 - 0.0 - - - - - - -
31/02:00am 25.8 NE 3 3 1012.1 - 0.0 - - - - - - -
31/01:30am 25.6 N 3 4 1012.3 - 0.0 - - - - - - -
31/01:00am 25.8 NNE 5 6 1012.6 - 0.0 - - - - - - -
31/12:30am 26.4 N 3 4 1013.0 - 0.0 - - - - - - -
31/12:00am 27.1 N 5 5 1013.4 - 0.0 - - - - - - -
 
Date/Time
EST
Temp

°C
Wind Pressure Rain
since 9am
mm
Weather Cloud Vis
km
Sea
Height
m
Swell
Dir
 
Speed
knots
Gust
knots
hPa Trend Height
m
Period
s
Dir
30/11:30pm 27.1 NNW 4 4 1013.3 - 0.0 - - - - - - -
30/11:00pm 27.3 NNW 4 4 1013.6 - 0.0 - - - - - - -
30/10:30pm 27.2 NNW 4 5 1013.7 - 0.0 - - - - - - -
30/10:00pm 27.3 N 3 4 1013.8 - 0.0 - - - - - - -
30/09:30pm 27.3 N 3 3 1013.9 - 0.0 - - - - - - -
30/09:00pm 27.7 CALM 0 3 1013.9 - 0.0 - - - - - - -
30/08:30pm 27.9 N 3 3 1013.8 - 0.0 - - - - - - -
30/08:00pm 28.1 CALM 0 0 1013.5 - 0.0 - - - - - - -
30/07:30pm 28.5 CALM 0 0 1013.2 - 0.0 - - - - - - -
30/07:00pm 29.1 NNE 4 5 1012.9 - 0.0 - - - - - - -
30/06:30pm 30.7 E 4 5 1012.8 - 0.0 - - - - - - -
30/06:00pm 31.5 ESE 4 8 1012.8 - 0.0 - - - - - - -
30/05:30pm 32.2 ESE 7 10 1012.7 - 0.0 - - - - - - -
30/05:00pm 32.4 ESE 8 14 1012.5 - 0.0 - - - - - - -
30/04:30pm 32.1 SE 8 15 1012.5 - 0.0 - - - - - - -
30/04:00pm 32.7 SE 7 13 1012.4 - 0.0 - - - - - - -
30/03:30pm 33.1 SE 8 14 1012.4 - 0.0 - - - - - - -
30/03:00pm 33.0 SE 9 14 1012.7 - 0.0 - - - - - - -
30/02:30pm 33.6 SE 9 14 1012.9 - 0.0 - - - - - - -
30/02:00pm 33.5 ESE 9 13 1013.2 - 0.0 - - - - - - -
30/01:30pm 33.1 ESE 10 14 1013.5 - 0.0 - - - - - - -
30/01:00pm 33.1 ESE 10 14 1013.8 - 0.0 - - - - - - -
30/12:30pm 33.0 ESE 10 15 1014.2 - 0.0 - - - - - - -
30/12:00pm 33.0 E 11 15 1014.8 - 0.0 - - - - - - -
30/11:30am 32.2 E 9 13 1015.4 - 0.0 - - - - - - -
30/11:00am 32.5 E 11 15 1015.5 - 0.0 - - - - - - -
30/10:30am 32.2 E 11 15 1015.8 - 0.0 - - - - - - -
30/10:00am 32.2 E 12 16 1016.0 - 0.0 - - - - - - -
30/09:30am 31.4 ENE 13 18 1016.0 - 0.0 - - - - - - -
30/09:00am 30.9 ENE 10 15 1015.7 - 0.0 - - - - - - -
30/08:30am 29.4 ENE 8 12 1015.4 - 0.0 - - - - - - -
30/08:00am 28.0 ENE 6 7 1015.1 - 0.0 - - - - - - -
30/07:30am 26.7 SE 4 5 1014.6 - 0.0 - - - - - - -
30/07:00am 25.6 ESE 5 6 1014.1 - 0.0 - - - - - - -
30/06:30am 25.6 E 7 8 1013.7 - 0.0 - - - - - - -
30/06:00am 24.9 E 5 5 1013.3 - 0.0 - - - - - - -
30/05:30am 24.6 SSE 4 5 1012.9 - 0.0 - - - - - - -
30/05:00am 24.9 E 3 4 1012.3 - 0.0 - - - - - - -
30/04:30am 24.5 ENE 4 4 1012.1 - 0.0 - - - - - - -
30/04:00am 24.5 CALM 0 2 1011.8 - 0.0 - - - - - - -
30/03:30am 24.5 NNE 3 3 1011.8 - 0.0 - - - - - - -
30/03:00am 24.6 CALM 0 0 1011.7 - 0.0 - - - - - - -
30/02:30am 24.8 CALM 0 0 1012.1 - 0.0 - - - - - - -
30/02:00am 25.1 CALM 0 0 1012.3 - 0.0 - - - - - - -
30/01:30am 24.9 NNE 3 4 1012.7 - 0.0 - - - - - - -
30/01:00am 25.1 NNE 3 3 1013.0 - 0.0 - - - - - - -
30/12:30am 25.3 NE 3 4 1013.3 - 0.0 - - - - - - -
30/12:00am 25.3 NE 2 3 1013.4 - 0.0 - - - - - - -
 
Date/Time
EST
Temp

°C
Wind Pressure Rain
since 9am
mm
Weather Cloud Vis
km
Sea
Height
m
Swell
Dir
 
Speed
knots
Gust
knots
hPa Trend Height
m
Period
s
Dir
29/11:30pm 25.1 NE 3 4 1013.5 - 0.0 - - - - - - -
29/11:00pm 25.8 NE 4 5 1013.7 - 0.0 - - - - - - -
29/10:30pm 26.3 NE 6 7 1013.9 - 0.0 - - - - - - -
29/10:00pm 26.4 NE 5 6 1013.8 - 0.0 - - - - - - -
29/09:30pm 26.7 NNE 5 6 1013.5 - 0.0 - - - - - - -
29/09:00pm 26.8 NNE 5 6 1013.4 - 0.0 - - - - - - -
29/08:30pm 27.2 NNE 5 6 1013.3 - 0.0 - - - - - - -
29/08:00pm 27.8 NNE 5 6 1013.1 - 0.0 - - - - - - -
29/07:30pm 28.3 NNE 3 4 1012.9 - 0.0 - - - - - - -
29/07:00pm 28.8 NNW 4 5 1012.7 - 0.0 - - - - - - -
29/06:30pm 30.2 NNW 4 5 1012.5 - 0.0 - - - - - - -
29/06:00pm 32.4 ESE 5 8 1012.4 - 0.0 - - - - - - -
29/05:30pm 32.9 ESE 5 7 1012.3 - 0.0 - - - - - - -
29/05:00pm 32.9 S 4 7 1012.1 - 0.0 - - - - - - -
29/04:30pm 32.5 SSE 7 10 1012.0 - 0.0 - - - - - - -
29/04:00pm 32.8 SE 7 11 1011.9 - 0.0 - - - - - - -
29/03:30pm 32.7 SE 7 11 1012.1 - 0.0 - - - - - - -
29/03:00pm 32.4 SSE 8 13 1012.4 - 0.0 - - - - - - -
29/02:30pm 32.4 SSE 8 12 1012.6 - 0.0 - - - - - - -
29/02:00pm 31.8 SSE 8 12 1013.1 - 0.0 - - - - - - -
29/01:30pm 32.1 SSE 7 11 1013.4 - 0.0 - - - - - - -
29/01:00pm 31.8 SSE 7 12 1013.8 - 0.0 - - - - - - -
29/12:30pm 32.1 SE 9 13 1014.3 - 0.0 - - - - - - -
29/12:00pm 32.0 SE 10 14 1014.6 - 0.0 - - - - - - -
29/11:30am 31.7 ESE 10 14 1014.8 - 0.0 - - - - - - -
29/11:00am 31.3 ESE 9 14 1015.2 - 0.0 - - - - - - -
29/10:30am 29.5 ESE 8 11 1015.4 - 0.0 - - - - - - -
29/10:00am 28.4 E 7 10 1015.5 - 0.0 - - - - - - -
29/09:30am 27.5 ENE 14 21 1015.7 - 0.0 - - - - - - -
29/09:24am 27.5 ENE 13 26 1015.7 - 0.0 - - - - - - -
29/09:19am 27.7 ENE 9 26 1015.6 - 0.0 - - - - - - -
29/09:00am 29.2 E 7 10 1015.4 - 7.2 - - - - - - -
29/08:30am 28.6 E 7 8 1015.2 - 7.2 - - - - - - -
29/08:00am 27.8 ESE 4 5 1014.8 - 7.2 - - - - - - -
29/07:30am 26.2 ENE 3 4 1014.2 - 7.2 - - - - - - -
29/07:00am 25.6 E 4 5 1013.9 - 7.2 - - - - - - -
29/06:30am 25.5 ENE 2 4 1013.5 - 7.2 - - - - - - -
29/06:00am 25.9 E 4 5 1013.2 - 7.2 - - - - - - -
29/05:30am 26.9 CALM 0 2 1012.7 - 7.2 - - - - - - -
29/05:00am 28.2 W 4 6 1012.1 - 7.2 - - - - - - -
29/04:30am 28.5 W 8 10 1011.5 - 7.2 - - - - - - -
29/04:00am 28.5 W 8 11 1011.6 - 7.2 - - - - - - -
29/03:30am 28.3 W 8 10 1011.6 - 7.2 - - - - - - -
29/03:00am 28.5 WNW 8 11 1011.7 - 7.2 - - - - - - -

Other Formats:

Comma delimited format used in spreadsheet applications
http://www.bom.gov.au/fwo/IDQ60701/IDQ60701.94254.axf

JavaScript Object Notation format (JSON) in row-major order
http://www.bom.gov.au/fwo/IDQ60701/IDQ60701.94254.json